Etzikom, Canada
Current Conditions -  °F | °C
As of 2:00 AM on Tuesday 21 Oct 2014 (Local Time) from CYXH Reporting Station
Clear Clear  
Wind Chill:   Ceiling: Unl
Heat Index:   Visibility: 9mi
Dew Point:   Wind: 7mph
Humidity: 70%   Direction: 160°SSE
Pressure: 29.64"   Gusts: NA
Location:  49.48°N, 111.1°W
Report Text: CYXH 210800Z AUTO 16006KT 9SM CLR 06/01 A2964 RMK SLP035
Loading
Personal Weather Stations






























Interactive Weather Map
Tropical Storm Tracking
New forecast layout! Learn more

10-Day Weather Forecast

Advertisements
Track Severe Weather on mobile